sensor_id;sensor_type;location;lat;lon;timestamp;P1;durP1;ratioP1;P2;durP2;ratioP2
20456;SDS011;10387;51.102;6.848;2023-01-23T00:00:51;21.67;;;15.17;;
20456;SDS011;10387;51.102;6.848;2023-01-23T00:03:16;23.83;;;15.10;;
20456;SDS011;10387;51.102;6.848;2023-01-23T00:05:43;24.10;;;16.30;;
20456;SDS011;10387;51.102;6.848;2023-01-23T00:08:09;21.67;;;15.80;;
20456;SDS011;10387;51.102;6.848;2023-01-23T00:10:36;23.37;;;15.73;;
20456;SDS011;10387;51.102;6.848;2023-01-23T00:13:02;26.57;;;16.27;;
20456;SDS011;10387;51.102;6.848;2023-01-23T00:15:28;25.07;;;16.67;;
20456;SDS011;10387;51.102;6.848;2023-01-23T00:17:54;24.13;;;15.70;;
20456;SDS011;10387;51.102;6.848;2023-01-23T00:20:19;26.70;;;16.57;;
20456;SDS011;10387;51.102;6.848;2023-01-23T00:22:45;25.67;;;17.27;;
20456;SDS011;10387;51.102;6.848;2023-01-23T00:25:11;24.00;;;16.40;;
20456;SDS011;10387;51.102;6.848;2023-01-23T00:27:36;24.33;;;16.67;;
20456;SDS011;10387;51.102;6.848;2023-01-23T00:30:03;25.03;;;15.63;;
20456;SDS011;10387;51.102;6.848;2023-01-23T00:32:29;21.83;;;15.53;;
20456;SDS011;10387;51.102;6.848;2023-01-23T00:34:55;24.97;;;15.77;;
20456;SDS011;10387;51.102;6.848;2023-01-23T00:37:20;26.33;;;16.13;;
20456;SDS011;10387;51.102;6.848;2023-01-23T00:39:48;26.40;;;16.60;;
20456;SDS011;10387;51.102;6.848;2023-01-23T00:42:15;23.43;;;15.00;;
20456;SDS011;10387;51.102;6.848;2023-01-23T00:44:41;23.90;;;16.53;;
20456;SDS011;10387;51.102;6.848;2023-01-23T00:47:06;23.73;;;15.50;;
20456;SDS011;10387;51.102;6.848;2023-01-23T00:49:32;25.00;;;16.03;;
20456;SDS011;10387;51.102;6.848;2023-01-23T00:51:59;21.77;;;15.17;;
20456;SDS011;10387;51.102;6.848;2023-01-23T00:54:26;22.37;;;15.57;;
20456;SDS011;10387;51.102;6.848;2023-01-23T00:56:51;22.20;;;15.33;;
20456;SDS011;10387;51.102;6.848;2023-01-23T00:59:17;22.37;;;15.27;;
20456;SDS011;10387;51.102;6.848;2023-01-23T01:01:43;19.60;;;13.77;;
20456;SDS011;10387;51.102;6.848;2023-01-23T01:04:08;24.13;;;15.33;;
20456;SDS011;10387;51.102;6.848;2023-01-23T01:06:34;24.03;;;15.73;;
20456;SDS011;10387;51.102;6.848;2023-01-23T01:09:00;22.20;;;15.07;;
20456;SDS011;10387;51.102;6.848;2023-01-23T01:11:26;22.73;;;14.77;;
20456;SDS011;10387;51.102;6.848;2023-01-23T01:13:52;22.30;;;15.87;;
20456;SDS011;10387;51.102;6.848;2023-01-23T01:16:18;19.93;;;13.53;;
20456;SDS011;10387;51.102;6.848;2023-01-23T01:18:43;20.43;;;14.70;;
20456;SDS011;10387;51.102;6.848;2023-01-23T01:21:10;22.10;;;14.23;;
20456;SDS011;10387;51.102;6.848;2023-01-23T01:23:38;20.63;;;14.27;;
20456;SDS011;10387;51.102;6.848;2023-01-23T01:26:05;21.33;;;14.20;;
20456;SDS011;10387;51.102;6.848;2023-01-23T01:28:31;20.87;;;14.47;;
20456;SDS011;10387;51.102;6.848;2023-01-23T01:31:03;21.60;;;14.63;;
20456;SDS011;10387;51.102;6.848;2023-01-23T01:33:30;21.50;;;15.40;;
20456;SDS011;10387;51.102;6.848;2023-01-23T01:35:57;21.93;;;14.60;;
20456;SDS011;10387;51.102;6.848;2023-01-23T01:38:23;22.57;;;15.10;;
20456;SDS011;10387;51.102;6.848;2023-01-23T01:40:49;22.70;;;14.87;;
20456;SDS011;10387;51.102;6.848;2023-01-23T01:43:22;20.73;;;14.93;;
20456;SDS011;10387;51.102;6.848;2023-01-23T01:49:04;23.77;;;15.37;;
20456;SDS011;10387;51.102;6.848;2023-01-23T01:54:35;23.73;;;15.33;;
20456;SDS011;10387;51.102;6.848;2023-01-23T01:59:56;21.93;;;14.30;;
20456;SDS011;10387;51.102;6.848;2023-01-23T02:02:52;23.83;;;15.10;;
20456;SDS011;10387;51.102;6.848;2023-01-23T02:05:21;24.20;;;16.37;;
20456;SDS011;10387;51.102;6.848;2023-01-23T02:07:57;26.23;;;16.07;;
20456;SDS011;10387;51.102;6.848;2023-01-23T02:10:36;25.37;;;15.93;;
20456;SDS011;10387;51.102;6.848;2023-01-23T02:13:13;26.63;;;17.13;;
20456;SDS011;10387;51.102;6.848;2023-01-23T02:15:54;25.53;;;16.20;;
20456;SDS011;10387;51.102;6.848;2023-01-23T02:18:21;26.20;;;17.50;;
20456;SDS011;10387;51.102;6.848;2023-01-23T02:20:47;26.57;;;16.43;;
20456;SDS011;10387;51.102;6.848;2023-01-23T02:26:02;27.13;;;16.43;;
20456;SDS011;10387;51.102;6.848;2023-01-23T02:28:36;26.33;;;16.83;;
20456;SDS011;10387;51.102;6.848;2023-01-23T02:31:04;28.87;;;17.37;;
20456;SDS011;10387;51.102;6.848;2023-01-23T02:35:58;25.07;;;16.87;;
20456;SDS011;10387;51.102;6.848;2023-01-23T02:38:28;29.30;;;17.47;;
20456;SDS011;10387;51.102;6.848;2023-01-23T02:40:56;28.73;;;17.10;;
20456;SDS011;10387;51.102;6.848;2023-01-23T02:43:27;29.03;;;17.70;;
20456;SDS011;10387;51.102;6.848;2023-01-23T02:46:01;24.77;;;16.47;;
20456;SDS011;10387;51.102;6.848;2023-01-23T02:48:28;26.47;;;17.07;;
20456;SDS011;10387;51.102;6.848;2023-01-23T02:50:54;28.43;;;16.90;;
20456;SDS011;10387;51.102;6.848;2023-01-23T02:53:21;28.60;;;17.13;;
20456;SDS011;10387;51.102;6.848;2023-01-23T02:55:50;25.00;;;15.57;;
20456;SDS011;10387;51.102;6.848;2023-01-23T02:58:19;26.53;;;17.03;;
20456;SDS011;10387;51.102;6.848;2023-01-23T03:01:03;26.80;;;17.13;;
20456;SDS011;10387;51.102;6.848;2023-01-23T03:03:29;26.93;;;17.23;;
20456;SDS011;10387;51.102;6.848;2023-01-23T03:05:55;24.57;;;15.80;;
20456;SDS011;10387;51.102;6.848;2023-01-23T03:08:22;25.20;;;16.00;;
20456;SDS011;10387;51.102;6.848;2023-01-23T03:10:49;24.60;;;15.47;;
20456;SDS011;10387;51.102;6.848;2023-01-23T03:13:15;23.30;;;15.17;;
20456;SDS011;10387;51.102;6.848;2023-01-23T03:15:42;25.47;;;16.40;;
20456;SDS011;10387;51.102;6.848;2023-01-23T03:18:08;27.70;;;16.10;;
20456;SDS011;10387;51.102;6.848;2023-01-23T03:20:37;24.37;;;15.70;;
20456;SDS011;10387;51.102;6.848;2023-01-23T03:23:05;24.63;;;15.47;;
20456;SDS011;10387;51.102;6.848;2023-01-23T03:25:31;23.70;;;15.50;;
20456;SDS011;10387;51.102;6.848;2023-01-23T03:27:57;23.23;;;15.37;;
20456;SDS011;10387;51.102;6.848;2023-01-23T03:30:22;24.67;;;16.13;;
20456;SDS011;10387;51.102;6.848;2023-01-23T03:32:50;25.53;;;15.60;;
20456;SDS011;10387;51.102;6.848;2023-01-23T03:35:16;26.87;;;16.00;;
20456;SDS011;10387;51.102;6.848;2023-01-23T03:37:45;23.67;;;15.30;;
20456;SDS011;10387;51.102;6.848;2023-01-23T03:40:20;25.87;;;16.10;;
20456;SDS011;10387;51.102;6.848;2023-01-23T03:43:06;26.83;;;17.10;;
20456;SDS011;10387;51.102;6.848;2023-01-23T03:45:34;28.20;;;17.57;;
20456;SDS011;10387;51.102;6.848;2023-01-23T03:48:00;26.63;;;16.60;;
20456;SDS011;10387;51.102;6.848;2023-01-23T03:50:28;28.40;;;17.80;;
20456;SDS011;10387;51.102;6.848;2023-01-23T03:52:55;25.70;;;16.13;;
20456;SDS011;10387;51.102;6.848;2023-01-23T03:55:21;26.97;;;16.57;;
20456;SDS011;10387;51.102;6.848;2023-01-23T03:57:47;27.07;;;16.17;;
20456;SDS011;10387;51.102;6.848;2023-01-23T04:00:15;26.90;;;16.80;;
20456;SDS011;10387;51.102;6.848;2023-01-23T04:02:48;27.47;;;16.90;;
20456;SDS011;10387;51.102;6.848;2023-01-23T04:05:14;23.00;;;14.73;;
20456;SDS011;10387;51.102;6.848;2023-01-23T04:07:39;25.13;;;15.80;;
20456;SDS011;10387;51.102;6.848;2023-01-23T04:10:06;26.93;;;16.67;;
20456;SDS011;10387;51.102;6.848;2023-01-23T04:12:33;26.57;;;16.40;;
20456;SDS011;10387;51.102;6.848;2023-01-23T04:14:58;22.80;;;15.33;;
20456;SDS011;10387;51.102;6.848;2023-01-23T04:17:24;27.67;;;16.87;;
20456;SDS011;10387;51.102;6.848;2023-01-23T04:19:50;25.73;;;16.53;;
20456;SDS011;10387;51.102;6.848;2023-01-23T04:22:16;22.27;;;15.70;;
20456;SDS011;10387;51.102;6.848;2023-01-23T04:24:45;25.23;;;15.83;;
20456;SDS011;10387;51.102;6.848;2023-01-23T04:27:11;25.10;;;15.93;;
20456;SDS011;10387;51.102;6.848;2023-01-23T04:29:36;24.53;;;15.47;;
20456;SDS011;10387;51.102;6.848;2023-01-23T04:32:02;23.70;;;15.87;;
20456;SDS011;10387;51.102;6.848;2023-01-23T04:34:31;20.73;;;14.83;;
20456;SDS011;10387;51.102;6.848;2023-01-23T04:36:56;21.83;;;15.00;;
20456;SDS011;10387;51.102;6.848;2023-01-23T04:39:23;25.73;;;17.23;;
20456;SDS011;10387;51.102;6.848;2023-01-23T04:41:49;40.73;;;24.47;;
20456;SDS011;10387;51.102;6.848;2023-01-23T04:44:37;29.97;;;19.10;;
20456;SDS011;10387;51.102;6.848;2023-01-23T04:47:21;33.80;;;21.00;;
20456;SDS011;10387;51.102;6.848;2023-01-23T04:49:48;33.47;;;21.13;;
20456;SDS011;10387;51.102;6.848;2023-01-23T04:52:14;53.57;;;29.17;;
20456;SDS011;10387;51.102;6.848;2023-01-23T04:54:48;80.13;;;43.97;;
20456;SDS011;10387;51.102;6.848;2023-01-23T04:57:13;42.93;;;24.10;;
20456;SDS011;10387;51.102;6.848;2023-01-23T04:59:39;38.10;;;22.43;;
20456;SDS011;10387;51.102;6.848;2023-01-23T05:02:06;27.20;;;17.63;;
20456;SDS011;10387;51.102;6.848;2023-01-23T05:04:38;26.07;;;15.70;;
20456;SDS011;10387;51.102;6.848;2023-01-23T05:07:04;25.50;;;16.10;;
20456;SDS011;10387;51.102;6.848;2023-01-23T05:09:38;24.87;;;15.70;;
20456;SDS011;10387;51.102;6.848;2023-01-23T05:12:04;25.60;;;16.93;;
20456;SDS011;10387;51.102;6.848;2023-01-23T05:14:33;22.53;;;15.73;;
20456;SDS011;10387;51.102;6.848;2023-01-23T05:16:59;21.87;;;15.37;;
20456;SDS011;10387;51.102;6.848;2023-01-23T05:19:31;25.07;;;16.20;;
20456;SDS011;10387;51.102;6.848;2023-01-23T05:22:00;25.53;;;15.67;;
20456;SDS011;10387;51.102;6.848;2023-01-23T05:24:25;24.60;;;15.73;;
20456;SDS011;10387;51.102;6.848;2023-01-23T05:26:53;27.57;;;15.70;;
20456;SDS011;10387;51.102;6.848;2023-01-23T05:29:19;26.17;;;17.27;;
20456;SDS011;10387;51.102;6.848;2023-01-23T05:31:57;23.80;;;16.57;;
20456;SDS011;10387;51.102;6.848;2023-01-23T05:34:34;27.70;;;17.60;;
20456;SDS011;10387;51.102;6.848;2023-01-23T05:37:02;23.00;;;15.87;;
20456;SDS011;10387;51.102;6.848;2023-01-23T05:39:32;32.97;;;19.33;;
20456;SDS011;10387;51.102;6.848;2023-01-23T05:41:58;44.57;;;25.57;;
20456;SDS011;10387;51.102;6.848;2023-01-23T05:44:50;81.57;;;41.93;;
20456;SDS011;10387;51.102;6.848;2023-01-23T05:47:25;81.80;;;43.53;;
20456;SDS011;10387;51.102;6.848;2023-01-23T05:49:53;76.70;;;40.67;;
20456;SDS011;10387;51.102;6.848;2023-01-23T05:52:22;55.50;;;32.57;;
20456;SDS011;10387;51.102;6.848;2023-01-23T05:54:48;57.07;;;32.47;;
20456;SDS011;10387;51.102;6.848;2023-01-23T05:57:14;49.70;;;29.13;;
20456;SDS011;10387;51.102;6.848;2023-01-23T05:59:59;50.93;;;28.53;;
20456;SDS011;10387;51.102;6.848;2023-01-23T06:02:40;38.93;;;23.10;;
20456;SDS011;10387;51.102;6.848;2023-01-23T06:05:31;29.90;;;18.63;;
20456;SDS011;10387;51.102;6.848;2023-01-23T06:08:04;27.90;;;17.57;;
20456;SDS011;10387;51.102;6.848;2023-01-23T06:10:30;26.07;;;17.67;;
20456;SDS011;10387;51.102;6.848;2023-01-23T06:12:56;25.37;;;15.93;;
20456;SDS011;10387;51.102;6.848;2023-01-23T06:15:21;26.63;;;16.03;;
20456;SDS011;10387;51.102;6.848;2023-01-23T06:17:50;25.63;;;16.27;;
20456;SDS011;10387;51.102;6.848;2023-01-23T06:20:17;24.47;;;15.73;;
20456;SDS011;10387;51.102;6.848;2023-01-23T06:22:44;25.70;;;15.87;;
20456;SDS011;10387;51.102;6.848;2023-01-23T06:25:11;24.07;;;15.77;;
20456;SDS011;10387;51.102;6.848;2023-01-23T06:27:38;24.43;;;16.10;;
20456;SDS011;10387;51.102;6.848;2023-01-23T06:30:06;23.33;;;15.90;;
20456;SDS011;10387;51.102;6.848;2023-01-23T06:32:38;23.50;;;15.37;;
20456;SDS011;10387;51.102;6.848;2023-01-23T06:35:04;24.93;;;16.40;;
20456;SDS011;10387;51.102;6.848;2023-01-23T06:37:35;24.67;;;16.40;;
20456;SDS011;10387;51.102;6.848;2023-01-23T06:40:02;24.10;;;16.43;;
20456;SDS011;10387;51.102;6.848;2023-01-23T06:42:29;24.73;;;15.87;;
20456;SDS011;10387;51.102;6.848;2023-01-23T06:44:56;23.43;;;15.20;;
20456;SDS011;10387;51.102;6.848;2023-01-23T06:47:24;26.37;;;16.00;;
20456;SDS011;10387;51.102;6.848;2023-01-23T06:49:57;24.23;;;15.77;;
20456;SDS011;10387;51.102;6.848;2023-01-23T06:52:24;25.97;;;16.57;;
20456;SDS011;10387;51.102;6.848;2023-01-23T06:54:49;24.83;;;16.50;;
20456;SDS011;10387;51.102;6.848;2023-01-23T06:57:15;25.97;;;16.33;;
20456;SDS011;10387;51.102;6.848;2023-01-23T06:59:42;23.90;;;15.77;;
20456;SDS011;10387;51.102;6.848;2023-01-23T07:02:10;23.93;;;16.30;;
20456;SDS011;10387;51.102;6.848;2023-01-23T07:04:42;22.13;;;15.03;;
20456;SDS011;10387;51.102;6.848;2023-01-23T07:07:09;22.53;;;14.50;;
20456;SDS011;10387;51.102;6.848;2023-01-23T07:09:35;22.10;;;14.87;;
20456;SDS011;10387;51.102;6.848;2023-01-23T07:12:06;21.23;;;15.00;;
20456;SDS011;10387;51.102;6.848;2023-01-23T07:14:33;24.10;;;15.70;;
20456;SDS011;10387;51.102;6.848;2023-01-23T07:16:59;22.17;;;14.53;;
20456;SDS011;10387;51.102;6.848;2023-01-23T07:19:24;19.13;;;13.63;;
20456;SDS011;10387;51.102;6.848;2023-01-23T07:21:54;20.80;;;14.67;;
20456;SDS011;10387;51.102;6.848;2023-01-23T07:24:19;21.20;;;14.67;;
20456;SDS011;10387;51.102;6.848;2023-01-23T07:26:45;20.53;;;14.10;;
20456;SDS011;10387;51.102;6.848;2023-01-23T07:29:11;22.80;;;16.10;;
20456;SDS011;10387;51.102;6.848;2023-01-23T07:31:38;23.03;;;16.37;;
20456;SDS011;10387;51.102;6.848;2023-01-23T07:34:03;20.30;;;14.60;;
20456;SDS011;10387;51.102;6.848;2023-01-23T07:36:29;20.47;;;14.57;;
20456;SDS011;10387;51.102;6.848;2023-01-23T07:38:55;21.57;;;15.60;;
20456;SDS011;10387;51.102;6.848;2023-01-23T07:41:23;22.37;;;15.40;;
20456;SDS011;10387;51.102;6.848;2023-01-23T07:43:48;21.03;;;15.07;;
20456;SDS011;10387;51.102;6.848;2023-01-23T07:46:14;21.77;;;15.93;;
20456;SDS011;10387;51.102;6.848;2023-01-23T07:48:39;21.70;;;15.30;;
20456;SDS011;10387;51.102;6.848;2023-01-23T07:51:05;20.87;;;15.17;;
20456;SDS011;10387;51.102;6.848;2023-01-23T07:53:31;21.70;;;15.33;;
20456;SDS011;10387;51.102;6.848;2023-01-23T07:55:57;22.97;;;16.83;;
20456;SDS011;10387;51.102;6.848;2023-01-23T07:58:22;23.17;;;16.17;;
20456;SDS011;10387;51.102;6.848;2023-01-23T08:00:48;23.50;;;16.60;;
20456;SDS011;10387;51.102;6.848;2023-01-23T08:03:13;22.40;;;15.30;;
20456;SDS011;10387;51.102;6.848;2023-01-23T08:05:39;24.47;;;15.93;;
20456;SDS011;10387;51.102;6.848;2023-01-23T08:08:05;27.87;;;19.37;;
20456;SDS011;10387;51.102;6.848;2023-01-23T08:10:31;26.93;;;17.20;;
20456;SDS011;10387;51.102;6.848;2023-01-23T08:13:00;21.60;;;15.63;;
20456;SDS011;10387;51.102;6.848;2023-01-23T08:15:25;23.23;;;15.27;;
20456;SDS011;10387;51.102;6.848;2023-01-23T08:17:52;21.60;;;15.10;;
20456;SDS011;10387;51.102;6.848;2023-01-23T08:20:17;22.37;;;15.40;;
20456;SDS011;10387;51.102;6.848;2023-01-23T08:22:43;22.90;;;15.87;;
20456;SDS011;10387;51.102;6.848;2023-01-23T08:25:10;22.40;;;16.37;;
20456;SDS011;10387;51.102;6.848;2023-01-23T08:27:37;23.10;;;16.07;;
20456;SDS011;10387;51.102;6.848;2023-01-23T08:30:03;24.90;;;17.00;;
20456;SDS011;10387;51.102;6.848;2023-01-23T08:32:30;25.37;;;17.13;;
20456;SDS011;10387;51.102;6.848;2023-01-23T08:34:56;24.03;;;16.93;;
20456;SDS011;10387;51.102;6.848;2023-01-23T08:37:22;23.03;;;16.17;;
20456;SDS011;10387;51.102;6.848;2023-01-23T08:39:47;23.03;;;16.70;;
20456;SDS011;10387;51.102;6.848;2023-01-23T08:42:13;23.80;;;16.07;;
20456;SDS011;10387;51.102;6.848;2023-01-23T08:44:39;25.70;;;16.73;;
20456;SDS011;10387;51.102;6.848;2023-01-23T08:47:04;26.90;;;17.70;;
20456;SDS011;10387;51.102;6.848;2023-01-23T08:49:30;27.57;;;18.37;;
20456;SDS011;10387;51.102;6.848;2023-01-23T08:51:55;25.10;;;17.23;;
20456;SDS011;10387;51.102;6.848;2023-01-23T08:54:23;26.63;;;17.50;;
20456;SDS011;10387;51.102;6.848;2023-01-23T08:56:49;23.77;;;16.43;;
20456;SDS011;10387;51.102;6.848;2023-01-23T08:59:15;24.73;;;15.70;;
20456;SDS011;10387;51.102;6.848;2023-01-23T09:01:41;27.03;;;17.30;;
20456;SDS011;10387;51.102;6.848;2023-01-23T09:04:07;23.13;;;15.77;;
20456;SDS011;10387;51.102;6.848;2023-01-23T09:06:32;22.37;;;16.93;;
20456;SDS011;10387;51.102;6.848;2023-01-23T09:08:59;27.23;;;18.10;;
20456;SDS011;10387;51.102;6.848;2023-01-23T09:11:24;26.47;;;17.03;;
20456;SDS011;10387;51.102;6.848;2023-01-23T09:13:50;24.43;;;18.10;;
20456;SDS011;10387;51.102;6.848;2023-01-23T09:16:16;25.37;;;17.57;;
20456;SDS011;10387;51.102;6.848;2023-01-23T09:18:42;25.93;;;17.40;;
20456;SDS011;10387;51.102;6.848;2023-01-23T09:21:12;24.30;;;16.33;;
20456;SDS011;10387;51.102;6.848;2023-01-23T09:23:40;21.43;;;14.83;;
20456;SDS011;10387;51.102;6.848;2023-01-23T09:26:10;25.43;;;16.80;;
20456;SDS011;10387;51.102;6.848;2023-01-23T09:28:39;25.00;;;16.13;;
20456;SDS011;10387;51.102;6.848;2023-01-23T09:31:07;25.27;;;16.10;;
20456;SDS011;10387;51.102;6.848;2023-01-23T09:33:35;26.43;;;17.10;;
20456;SDS011;10387;51.102;6.848;2023-01-23T09:36:01;24.90;;;16.87;;
20456;SDS011;10387;51.102;6.848;2023-01-23T09:38:27;27.10;;;17.13;;
20456;SDS011;10387;51.102;6.848;2023-01-23T09:40:57;25.10;;;15.80;;
20456;SDS011;10387;51.102;6.848;2023-01-23T09:43:30;32.27;;;19.57;;
20456;SDS011;10387;51.102;6.848;2023-01-23T09:48:46;28.47;;;17.53;;
20456;SDS011;10387;51.102;6.848;2023-01-23T09:51:33;24.33;;;15.47;;
20456;SDS011;10387;51.102;6.848;2023-01-23T09:56:56;26.60;;;15.90;;
20456;SDS011;10387;51.102;6.848;2023-01-23T09:59:34;23.30;;;14.90;;
20456;SDS011;10387;51.102;6.848;2023-01-23T10:02:02;27.83;;;17.43;;
20456;SDS011;10387;51.102;6.848;2023-01-23T10:04:38;25.33;;;17.10;;
20456;SDS011;10387;51.102;6.848;2023-01-23T10:07:08;24.47;;;15.80;;
20456;SDS011;10387;51.102;6.848;2023-01-23T10:12:31;24.90;;;15.20;;
20456;SDS011;10387;51.102;6.848;2023-01-23T10:18:22;24.50;;;15.93;;
20456;SDS011;10387;51.102;6.848;2023-01-23T10:20:56;22.07;;;14.97;;
20456;SDS011;10387;51.102;6.848;2023-01-23T10:26:08;22.00;;;15.17;;
20456;SDS011;10387;51.102;6.848;2023-01-23T10:28:40;22.77;;;14.97;;
20456;SDS011;10387;51.102;6.848;2023-01-23T10:31:21;20.87;;;13.53;;
20456;SDS011;10387;51.102;6.848;2023-01-23T10:36:35;23.77;;;15.30;;
20456;SDS011;10387;51.102;6.848;2023-01-23T10:39:03;21.23;;;14.10;;
20456;SDS011;10387;51.102;6.848;2023-01-23T10:41:34;20.97;;;14.50;;
20456;SDS011;10387;51.102;6.848;2023-01-23T10:44:00;21.07;;;14.87;;
20456;SDS011;10387;51.102;6.848;2023-01-23T10:46:30;22.77;;;14.70;;
20456;SDS011;10387;51.102;6.848;2023-01-23T10:48:57;19.97;;;13.83;;
20456;SDS011;10387;51.102;6.848;2023-01-23T10:56:45;19.03;;;13.00;;
20456;SDS011;10387;51.102;6.848;2023-01-23T10:59:25;21.33;;;13.93;;
20456;SDS011;10387;51.102;6.848;2023-01-23T11:02:00;24.17;;;15.17;;
20456;SDS011;10387;51.102;6.848;2023-01-23T11:04:35;21.40;;;13.63;;
20456;SDS011;10387;51.102;6.848;2023-01-23T11:07:03;19.03;;;13.47;;
20456;SDS011;10387;51.102;6.848;2023-01-23T11:09:34;21.60;;;13.80;;
20456;SDS011;10387;51.102;6.848;2023-01-23T11:12:13;20.30;;;14.20;;
20456;SDS011;10387;51.102;6.848;2023-01-23T11:14:44;21.30;;;14.30;;
20456;SDS011;10387;51.102;6.848;2023-01-23T11:17:21;20.83;;;13.63;;
20456;SDS011;10387;51.102;6.848;2023-01-23T11:19:51;19.67;;;14.07;;
20456;SDS011;10387;51.102;6.848;2023-01-23T11:22:37;19.40;;;13.63;;
20456;SDS011;10387;51.102;6.848;2023-01-23T11:27:56;22.10;;;14.07;;
20456;SDS011;10387;51.102;6.848;2023-01-23T11:30:34;20.50;;;14.03;;
20456;SDS011;10387;51.102;6.848;2023-01-23T11:35:59;19.60;;;12.80;;
20456;SDS011;10387;51.102;6.848;2023-01-23T11:38:32;21.93;;;15.03;;
20456;SDS011;10387;51.102;6.848;2023-01-23T11:41:04;22.67;;;15.80;;
20456;SDS011;10387;51.102;6.848;2023-01-23T11:43:36;21.63;;;14.60;;
20456;SDS011;10387;51.102;6.848;2023-01-23T11:54:57;19.70;;;15.40;;
20456;SDS011;10387;51.102;6.848;2023-01-23T12:00:45;24.20;;;15.03;;
20456;SDS011;10387;51.102;6.848;2023-01-23T12:09:04;17.43;;;12.50;;
20456;SDS011;10387;51.102;6.848;2023-01-23T12:23:19;11.40;;;8.53;;
20456;SDS011;10387;51.102;6.848;2023-01-23T12:28:40;10.33;;;8.00;;
20456;SDS011;10387;51.102;6.848;2023-01-23T12:42:29;16.47;;;12.10;;
20456;SDS011;10387;51.102;6.848;2023-01-23T12:47:38;14.57;;;11.07;;
20456;SDS011;10387;51.102;6.848;2023-01-23T12:52:45;12.70;;;9.77;;
20456;SDS011;10387;51.102;6.848;2023-01-23T12:55:27;13.67;;;10.63;;
20456;SDS011;10387;51.102;6.848;2023-01-23T12:57:58;14.33;;;11.00;;
20456;SDS011;10387;51.102;6.848;2023-01-23T13:00:29;17.13;;;12.90;;
20456;SDS011;10387;51.102;6.848;2023-01-23T13:08:26;17.50;;;12.37;;
20456;SDS011;10387;51.102;6.848;2023-01-23T13:11:11;16.70;;;12.83;;
20456;SDS011;10387;51.102;6.848;2023-01-23T13:13:58;17.43;;;12.70;;
20456;SDS011;10387;51.102;6.848;2023-01-23T13:16:27;17.73;;;13.00;;
20456;SDS011;10387;51.102;6.848;2023-01-23T13:18:55;23.20;;;15.80;;
20456;SDS011;10387;51.102;6.848;2023-01-23T13:32:54;16.50;;;11.93;;
20456;SDS011;10387;51.102;6.848;2023-01-23T13:51:51;30.87;;;21.83;;
20456;SDS011;10387;51.102;6.848;2023-01-23T13:54:21;17.60;;;14.07;;
20456;SDS011;10387;51.102;6.848;2023-01-23T13:57:09;16.93;;;12.97;;
20456;SDS011;10387;51.102;6.848;2023-01-23T13:59:38;15.33;;;11.60;;
20456;SDS011;10387;51.102;6.848;2023-01-23T14:05:06;14.93;;;11.97;;
20456;SDS011;10387;51.102;6.848;2023-01-23T14:07:37;16.17;;;11.63;;
20456;SDS011;10387;51.102;6.848;2023-01-23T14:10:21;16.60;;;11.87;;
20456;SDS011;10387;51.102;6.848;2023-01-23T14:12:49;16.33;;;12.30;;
20456;SDS011;10387;51.102;6.848;2023-01-23T14:15:25;16.00;;;12.03;;
20456;SDS011;10387;51.102;6.848;2023-01-23T14:18:17;16.73;;;12.03;;
20456;SDS011;10387;51.102;6.848;2023-01-23T14:20:48;16.10;;;12.07;;
20456;SDS011;10387;51.102;6.848;2023-01-23T14:23:20;16.97;;;12.10;;
20456;SDS011;10387;51.102;6.848;2023-01-23T14:25:51;17.70;;;12.13;;
20456;SDS011;10387;51.102;6.848;2023-01-23T14:28:17;18.17;;;12.73;;
20456;SDS011;10387;51.102;6.848;2023-01-23T14:30:53;16.50;;;12.03;;
20456;SDS011;10387;51.102;6.848;2023-01-23T14:33:24;16.83;;;11.73;;
20456;SDS011;10387;51.102;6.848;2023-01-23T14:35:51;17.27;;;12.40;;
20456;SDS011;10387;51.102;6.848;2023-01-23T14:38:36;16.83;;;12.97;;
20456;SDS011;10387;51.102;6.848;2023-01-23T14:41:03;16.57;;;12.10;;
20456;SDS011;10387;51.102;6.848;2023-01-23T14:43:30;14.57;;;11.67;;
20456;SDS011;10387;51.102;6.848;2023-01-23T14:46:03;15.33;;;12.20;;
20456;SDS011;10387;51.102;6.848;2023-01-23T14:48:44;17.10;;;12.10;;
20456;SDS011;10387;51.102;6.848;2023-01-23T14:51:17;16.03;;;11.63;;
20456;SDS011;10387;51.102;6.848;2023-01-23T14:56:21;17.07;;;12.43;;
20456;SDS011;10387;51.102;6.848;2023-01-23T14:58:52;18.50;;;12.70;;
20456;SDS011;10387;51.102;6.848;2023-01-23T15:01:20;15.80;;;11.40;;
20456;SDS011;10387;51.102;6.848;2023-01-23T15:05:01;18.03;;;11.70;;
20456;SDS011;10387;51.102;6.848;2023-01-23T15:06:48;17.73;;;11.77;;
20456;SDS011;10387;51.102;6.848;2023-01-23T15:09:17;16.13;;;11.37;;
20456;SDS011;10387;51.102;6.848;2023-01-23T15:11:49;16.60;;;11.70;;
20456;SDS011;10387;51.102;6.848;2023-01-23T15:14:25;14.53;;;11.27;;
20456;SDS011;10387;51.102;6.848;2023-01-23T15:17:00;13.50;;;10.33;;
20456;SDS011;10387;51.102;6.848;2023-01-23T15:19:29;15.30;;;11.10;;
20456;SDS011;10387;51.102;6.848;2023-01-23T15:22:06;15.03;;;11.67;;
20456;SDS011;10387;51.102;6.848;2023-01-23T15:24:42;15.20;;;11.77;;
20456;SDS011;10387;51.102;6.848;2023-01-23T15:32:56;15.93;;;11.47;;
20456;SDS011;10387;51.102;6.848;2023-01-23T15:35:23;14.40;;;10.87;;
20456;SDS011;10387;51.102;6.848;2023-01-23T15:37:49;14.87;;;10.97;;
20456;SDS011;10387;51.102;6.848;2023-01-23T15:40:23;13.53;;;10.97;;
20456;SDS011;10387;51.102;6.848;2023-01-23T15:43:10;14.10;;;10.60;;
20456;SDS011;10387;51.102;6.848;2023-01-23T15:45:38;16.03;;;12.10;;
20456;SDS011;10387;51.102;6.848;2023-01-23T15:48:04;15.60;;;11.63;;
20456;SDS011;10387;51.102;6.848;2023-01-23T15:50:30;15.00;;;11.30;;
20456;SDS011;10387;51.102;6.848;2023-01-23T15:52:56;14.07;;;11.27;;
20456;SDS011;10387;51.102;6.848;2023-01-23T15:55:22;14.93;;;11.77;;
20456;SDS011;10387;51.102;6.848;2023-01-23T15:57:50;15.80;;;11.63;;
20456;SDS011;10387;51.102;6.848;2023-01-23T16:00:21;17.03;;;12.60;;
20456;SDS011;10387;51.102;6.848;2023-01-23T16:02:51;15.70;;;11.73;;
20456;SDS011;10387;51.102;6.848;2023-01-23T16:05:25;15.47;;;11.17;;
20456;SDS011;10387;51.102;6.848;2023-01-23T16:07:57;16.20;;;12.17;;
20456;SDS011;10387;51.102;6.848;2023-01-23T16:10:28;18.70;;;13.47;;
20456;SDS011;10387;51.102;6.848;2023-01-23T16:12:56;18.67;;;12.57;;
20456;SDS011;10387;51.102;6.848;2023-01-23T16:15:26;18.17;;;13.20;;
20456;SDS011;10387;51.102;6.848;2023-01-23T16:17:54;18.20;;;13.27;;
20456;SDS011;10387;51.102;6.848;2023-01-23T16:20:28;19.97;;;14.37;;
20456;SDS011;10387;51.102;6.848;2023-01-23T16:22:59;18.60;;;13.73;;
20456;SDS011;10387;51.102;6.848;2023-01-23T16:25:29;19.77;;;14.83;;
20456;SDS011;10387;51.102;6.848;2023-01-23T16:28:03;24.70;;;16.00;;
20456;SDS011;10387;51.102;6.848;2023-01-23T16:30:29;20.13;;;15.33;;
20456;SDS011;10387;51.102;6.848;2023-01-23T16:32:55;21.47;;;16.07;;
20456;SDS011;10387;51.102;6.848;2023-01-23T16:35:21;19.93;;;14.73;;
20456;SDS011;10387;51.102;6.848;2023-01-23T16:37:51;21.27;;;15.27;;
20456;SDS011;10387;51.102;6.848;2023-01-23T16:40:22;18.97;;;14.57;;
20456;SDS011;10387;51.102;6.848;2023-01-23T16:42:49;19.70;;;14.83;;
20456;SDS011;10387;51.102;6.848;2023-01-23T16:45:20;18.20;;;13.30;;
20456;SDS011;10387;51.102;6.848;2023-01-23T16:47:48;20.53;;;14.40;;
20456;SDS011;10387;51.102;6.848;2023-01-23T16:50:15;20.87;;;15.23;;